sensor_id;sensor_type;location;lat;lon;timestamp;P1;durP1;ratioP1;P2;durP2;ratioP2
20619;SDS011;10469;42.720;23.252;2022-11-14T00:00:27;73.35;;;39.00;;
20619;SDS011;10469;42.720;23.252;2022-11-14T00:02:54;73.68;;;42.63;;
20619;SDS011;10469;42.720;23.252;2022-11-14T00:05:23;70.10;;;40.05;;
20619;SDS011;10469;42.720;23.252;2022-11-14T00:07:48;88.22;;;45.28;;
20619;SDS011;10469;42.720;23.252;2022-11-14T00:10:14;85.07;;;46.03;;
20619;SDS011;10469;42.720;23.252;2022-11-14T00:12:40;83.60;;;45.72;;
20619;SDS011;10469;42.720;23.252;2022-11-14T00:15:06;84.05;;;48.38;;
20619;SDS011;10469;42.720;23.252;2022-11-14T00:17:32;93.05;;;49.83;;
20619;SDS011;10469;42.720;23.252;2022-11-14T00:19:57;93.93;;;48.88;;
20619;SDS011;10469;42.720;23.252;2022-11-14T00:22:23;88.90;;;49.45;;
20619;SDS011;10469;42.720;23.252;2022-11-14T00:24:48;90.18;;;47.95;;
20619;SDS011;10469;42.720;23.252;2022-11-14T00:27:14;94.18;;;51.38;;
20619;SDS011;10469;42.720;23.252;2022-11-14T00:29:40;94.95;;;50.92;;
20619;SDS011;10469;42.720;23.252;2022-11-14T00:32:05;105.22;;;54.53;;
20619;SDS011;10469;42.720;23.252;2022-11-14T00:34:32;98.57;;;52.78;;
20619;SDS011;10469;42.720;23.252;2022-11-14T00:36:58;97.18;;;53.33;;
20619;SDS011;10469;42.720;23.252;2022-11-14T00:39:24;99.30;;;53.80;;
20619;SDS011;10469;42.720;23.252;2022-11-14T00:41:49;98.63;;;53.65;;
20619;SDS011;10469;42.720;23.252;2022-11-14T00:44:15;95.35;;;52.85;;
20619;SDS011;10469;42.720;23.252;2022-11-14T00:46:40;88.45;;;50.80;;
20619;SDS011;10469;42.720;23.252;2022-11-14T00:49:06;85.68;;;47.85;;
20619;SDS011;10469;42.720;23.252;2022-11-14T00:51:31;81.28;;;45.67;;
20619;SDS011;10469;42.720;23.252;2022-11-14T00:53:57;83.05;;;45.88;;
20619;SDS011;10469;42.720;23.252;2022-11-14T00:56:22;87.20;;;48.92;;
20619;SDS011;10469;42.720;23.252;2022-11-14T00:58:48;90.32;;;49.88;;
20619;SDS011;10469;42.720;23.252;2022-11-14T01:01:13;90.90;;;48.65;;
20619;SDS011;10469;42.720;23.252;2022-11-14T01:03:39;84.10;;;48.65;;
20619;SDS011;10469;42.720;23.252;2022-11-14T01:06:06;91.82;;;47.90;;
20619;SDS011;10469;42.720;23.252;2022-11-14T01:08:33;79.72;;;44.60;;
20619;SDS011;10469;42.720;23.252;2022-11-14T01:10:59;89.07;;;48.78;;
20619;SDS011;10469;42.720;23.252;2022-11-14T01:13:24;96.05;;;53.72;;
20619;SDS011;10469;42.720;23.252;2022-11-14T01:15:51;91.43;;;53.63;;
20619;SDS011;10469;42.720;23.252;2022-11-14T01:18:17;92.75;;;51.83;;
20619;SDS011;10469;42.720;23.252;2022-11-14T01:20:45;106.38;;;52.63;;
20619;SDS011;10469;42.720;23.252;2022-11-14T01:23:12;104.35;;;57.28;;
20619;SDS011;10469;42.720;23.252;2022-11-14T01:25:39;103.03;;;57.30;;
20619;SDS011;10469;42.720;23.252;2022-11-14T01:28:07;102.18;;;56.28;;
20619;SDS011;10469;42.720;23.252;2022-11-14T01:30:34;104.43;;;54.00;;
20619;SDS011;10469;42.720;23.252;2022-11-14T01:33:00;106.20;;;54.20;;
20619;SDS011;10469;42.720;23.252;2022-11-14T01:35:26;102.20;;;54.42;;
20619;SDS011;10469;42.720;23.252;2022-11-14T01:37:52;100.43;;;55.45;;
20619;SDS011;10469;42.720;23.252;2022-11-14T01:40:17;94.22;;;50.85;;
20619;SDS011;10469;42.720;23.252;2022-11-14T01:43:10;100.97;;;53.25;;
20619;SDS011;10469;42.720;23.252;2022-11-14T01:45:49;92.22;;;49.00;;
20619;SDS011;10469;42.720;23.252;2022-11-14T01:48:23;87.45;;;49.47;;
20619;SDS011;10469;42.720;23.252;2022-11-14T01:50:51;83.72;;;47.63;;
20619;SDS011;10469;42.720;23.252;2022-11-14T01:53:19;79.53;;;44.50;;
20619;SDS011;10469;42.720;23.252;2022-11-14T01:55:45;82.07;;;45.25;;
20619;SDS011;10469;42.720;23.252;2022-11-14T01:58:11;81.40;;;43.95;;
20619;SDS011;10469;42.720;23.252;2022-11-14T02:00:37;78.40;;;42.30;;
20619;SDS011;10469;42.720;23.252;2022-11-14T02:03:02;72.93;;;43.13;;
20619;SDS011;10469;42.720;23.252;2022-11-14T02:05:28;78.75;;;44.05;;
20619;SDS011;10469;42.720;23.252;2022-11-14T02:07:54;78.53;;;43.03;;
20619;SDS011;10469;42.720;23.252;2022-11-14T02:10:21;76.18;;;45.58;;
20619;SDS011;10469;42.720;23.252;2022-11-14T02:12:46;77.57;;;44.13;;
20619;SDS011;10469;42.720;23.252;2022-11-14T02:15:14;79.57;;;44.03;;
20619;SDS011;10469;42.720;23.252;2022-11-14T02:17:41;76.90;;;43.70;;
20619;SDS011;10469;42.720;23.252;2022-11-14T02:22:37;75.07;;;43.78;;
20619;SDS011;10469;42.720;23.252;2022-11-14T02:25:04;67.85;;;41.13;;
20619;SDS011;10469;42.720;23.252;2022-11-14T02:27:31;72.65;;;41.15;;
20619;SDS011;10469;42.720;23.252;2022-11-14T02:30:08;69.90;;;40.90;;
20619;SDS011;10469;42.720;23.252;2022-11-14T02:32:36;71.35;;;37.95;;
20619;SDS011;10469;42.720;23.252;2022-11-14T02:35:02;65.75;;;36.50;;
20619;SDS011;10469;42.720;23.252;2022-11-14T02:37:27;59.95;;;35.40;;
20619;SDS011;10469;42.720;23.252;2022-11-14T02:39:53;66.05;;;37.50;;
20619;SDS011;10469;42.720;23.252;2022-11-14T02:42:18;62.85;;;36.47;;
20619;SDS011;10469;42.720;23.252;2022-11-14T02:44:44;54.85;;;33.42;;
20619;SDS011;10469;42.720;23.252;2022-11-14T02:47:09;57.47;;;33.22;;
20619;SDS011;10469;42.720;23.252;2022-11-14T02:49:35;56.47;;;32.22;;
20619;SDS011;10469;42.720;23.252;2022-11-14T02:52:00;64.22;;;35.35;;
20619;SDS011;10469;42.720;23.252;2022-11-14T02:54:26;64.25;;;36.35;;
20619;SDS011;10469;42.720;23.252;2022-11-14T02:56:51;171.23;;;40.05;;
20619;SDS011;10469;42.720;23.252;2022-11-14T02:59:17;102.40;;;40.83;;
20619;SDS011;10469;42.720;23.252;2022-11-14T03:01:42;102.38;;;39.33;;
20619;SDS011;10469;42.720;23.252;2022-11-14T03:04:07;196.93;;;43.50;;
20619;SDS011;10469;42.720;23.252;2022-11-14T03:06:33;96.72;;;40.13;;
20619;SDS011;10469;42.720;23.252;2022-11-14T03:08:59;171.70;;;42.58;;
20619;SDS011;10469;42.720;23.252;2022-11-14T03:11:24;128.57;;;41.50;;
20619;SDS011;10469;42.720;23.252;2022-11-14T03:13:49;126.00;;;42.25;;
20619;SDS011;10469;42.720;23.252;2022-11-14T03:16:15;258.23;;;42.75;;
20619;SDS011;10469;42.720;23.252;2022-11-14T03:18:40;149.38;;;41.35;;
20619;SDS011;10469;42.720;23.252;2022-11-14T03:21:19;370.83;;;49.08;;
20619;SDS011;10469;42.720;23.252;2022-11-14T03:23:45;274.65;;;47.45;;
20619;SDS011;10469;42.720;23.252;2022-11-14T03:26:11;171.95;;;44.13;;
20619;SDS011;10469;42.720;23.252;2022-11-14T03:28:39;209.70;;;45.55;;
20619;SDS011;10469;42.720;23.252;2022-11-14T03:31:06;256.80;;;46.35;;
20619;SDS011;10469;42.720;23.252;2022-11-14T03:33:32;214.77;;;42.03;;
20619;SDS011;10469;42.720;23.252;2022-11-14T03:35:58;252.32;;;46.45;;
20619;SDS011;10469;42.720;23.252;2022-11-14T03:38:24;256.05;;;45.92;;
20619;SDS011;10469;42.720;23.252;2022-11-14T03:40:50;207.63;;;45.78;;
20619;SDS011;10469;42.720;23.252;2022-11-14T03:43:16;238.48;;;46.13;;
20619;SDS011;10469;42.720;23.252;2022-11-14T03:45:42;191.55;;;44.90;;
20619;SDS011;10469;42.720;23.252;2022-11-14T03:48:08;185.25;;;46.58;;
20619;SDS011;10469;42.720;23.252;2022-11-14T03:50:33;204.32;;;44.50;;
20619;SDS011;10469;42.720;23.252;2022-11-14T03:52:59;155.98;;;46.47;;
20619;SDS011;10469;42.720;23.252;2022-11-14T03:55:24;177.75;;;44.97;;
20619;SDS011;10469;42.720;23.252;2022-11-14T03:57:50;272.77;;;45.55;;
20619;SDS011;10469;42.720;23.252;2022-11-14T04:00:16;138.68;;;40.63;;
20619;SDS011;10469;42.720;23.252;2022-11-14T04:02:41;232.25;;;39.58;;
20619;SDS011;10469;42.720;23.252;2022-11-14T04:05:07;160.65;;;39.72;;
20619;SDS011;10469;42.720;23.252;2022-11-14T04:07:33;171.80;;;41.15;;
20619;SDS011;10469;42.720;23.252;2022-11-14T04:09:58;140.98;;;41.28;;
20619;SDS011;10469;42.720;23.252;2022-11-14T04:12:24;173.23;;;42.60;;
20619;SDS011;10469;42.720;23.252;2022-11-14T04:14:50;120.65;;;41.45;;
20619;SDS011;10469;42.720;23.252;2022-11-14T04:17:16;205.23;;;44.20;;
20619;SDS011;10469;42.720;23.252;2022-11-14T04:19:42;231.82;;;46.17;;
20619;SDS011;10469;42.720;23.252;2022-11-14T04:22:07;133.85;;;43.10;;
20619;SDS011;10469;42.720;23.252;2022-11-14T04:24:33;177.60;;;42.85;;
20619;SDS011;10469;42.720;23.252;2022-11-14T04:26:58;121.60;;;43.58;;
20619;SDS011;10469;42.720;23.252;2022-11-14T04:29:24;129.70;;;44.60;;
20619;SDS011;10469;42.720;23.252;2022-11-14T04:31:49;134.48;;;44.20;;
20619;SDS011;10469;42.720;23.252;2022-11-14T04:34:15;157.98;;;46.08;;
20619;SDS011;10469;42.720;23.252;2022-11-14T04:36:40;118.75;;;45.20;;
20619;SDS011;10469;42.720;23.252;2022-11-14T04:39:06;122.70;;;45.92;;
20619;SDS011;10469;42.720;23.252;2022-11-14T04:41:32;147.88;;;46.53;;
20619;SDS011;10469;42.720;23.252;2022-11-14T04:43:57;141.82;;;47.95;;
20619;SDS011;10469;42.720;23.252;2022-11-14T04:46:23;150.05;;;48.88;;
20619;SDS011;10469;42.720;23.252;2022-11-14T04:48:48;146.02;;;45.38;;
20619;SDS011;10469;42.720;23.252;2022-11-14T04:51:14;132.48;;;47.95;;
20619;SDS011;10469;42.720;23.252;2022-11-14T04:53:39;124.45;;;48.30;;
20619;SDS011;10469;42.720;23.252;2022-11-14T04:56:05;125.95;;;46.03;;
20619;SDS011;10469;42.720;23.252;2022-11-14T04:58:31;139.15;;;44.50;;
20619;SDS011;10469;42.720;23.252;2022-11-14T05:00:56;132.65;;;44.50;;
20619;SDS011;10469;42.720;23.252;2022-11-14T05:03:22;144.88;;;43.55;;
20619;SDS011;10469;42.720;23.252;2022-11-14T05:05:48;157.48;;;42.90;;
20619;SDS011;10469;42.720;23.252;2022-11-14T05:08:14;124.60;;;40.80;;
20619;SDS011;10469;42.720;23.252;2022-11-14T05:10:43;157.13;;;41.63;;
20619;SDS011;10469;42.720;23.252;2022-11-14T05:13:11;258.95;;;42.70;;
20619;SDS011;10469;42.720;23.252;2022-11-14T05:15:37;312.38;;;43.10;;
20619;SDS011;10469;42.720;23.252;2022-11-14T05:18:02;230.68;;;42.35;;
20619;SDS011;10469;42.720;23.252;2022-11-14T05:20:28;189.40;;;40.00;;
20619;SDS011;10469;42.720;23.252;2022-11-14T05:22:54;344.98;;;42.75;;
20619;SDS011;10469;42.720;23.252;2022-11-14T05:25:20;224.57;;;41.30;;
20619;SDS011;10469;42.720;23.252;2022-11-14T05:27:46;278.48;;;42.10;;
20619;SDS011;10469;42.720;23.252;2022-11-14T05:30:12;157.15;;;41.38;;
20619;SDS011;10469;42.720;23.252;2022-11-14T05:32:39;211.35;;;39.90;;
20619;SDS011;10469;42.720;23.252;2022-11-14T05:35:04;200.80;;;41.60;;
20619;SDS011;10469;42.720;23.252;2022-11-14T05:37:30;224.50;;;37.83;;
20619;SDS011;10469;42.720;23.252;2022-11-14T05:39:56;241.10;;;40.75;;
20619;SDS011;10469;42.720;23.252;2022-11-14T05:42:21;264.92;;;39.28;;
20619;SDS011;10469;42.720;23.252;2022-11-14T05:44:47;222.32;;;39.00;;
20619;SDS011;10469;42.720;23.252;2022-11-14T05:47:12;233.65;;;39.20;;
20619;SDS011;10469;42.720;23.252;2022-11-14T05:49:37;217.50;;;39.33;;
20619;SDS011;10469;42.720;23.252;2022-11-14T05:52:03;183.95;;;42.63;;
20619;SDS011;10469;42.720;23.252;2022-11-14T05:54:29;215.20;;;39.30;;
20619;SDS011;10469;42.720;23.252;2022-11-14T05:56:54;205.07;;;42.83;;
20619;SDS011;10469;42.720;23.252;2022-11-14T05:59:19;185.35;;;40.70;;
20619;SDS011;10469;42.720;23.252;2022-11-14T06:01:45;199.40;;;41.42;;
20619;SDS011;10469;42.720;23.252;2022-11-14T06:04:12;203.82;;;40.85;;
20619;SDS011;10469;42.720;23.252;2022-11-14T06:06:39;295.63;;;43.80;;
20619;SDS011;10469;42.720;23.252;2022-11-14T06:09:04;241.43;;;41.60;;
20619;SDS011;10469;42.720;23.252;2022-11-14T06:11:30;240.68;;;41.25;;
20619;SDS011;10469;42.720;23.252;2022-11-14T06:13:55;278.35;;;42.17;;
20619;SDS011;10469;42.720;23.252;2022-11-14T06:16:21;195.73;;;39.88;;
20619;SDS011;10469;42.720;23.252;2022-11-14T06:18:46;150.95;;;36.97;;
20619;SDS011;10469;42.720;23.252;2022-11-14T06:21:13;162.25;;;37.20;;
20619;SDS011;10469;42.720;23.252;2022-11-14T06:23:40;149.43;;;35.25;;
20619;SDS011;10469;42.720;23.252;2022-11-14T06:26:08;164.50;;;36.13;;
20619;SDS011;10469;42.720;23.252;2022-11-14T06:28:47;144.27;;;36.72;;
20619;SDS011;10469;42.720;23.252;2022-11-14T06:31:13;170.18;;;36.92;;
20619;SDS011;10469;42.720;23.252;2022-11-14T06:33:39;163.98;;;39.45;;
20619;SDS011;10469;42.720;23.252;2022-11-14T06:36:05;148.30;;;39.88;;
20619;SDS011;10469;42.720;23.252;2022-11-14T06:38:32;167.15;;;38.55;;
20619;SDS011;10469;42.720;23.252;2022-11-14T06:41:03;140.75;;;40.42;;
20619;SDS011;10469;42.720;23.252;2022-11-14T06:43:40;155.20;;;42.72;;
20619;SDS011;10469;42.720;23.252;2022-11-14T06:46:08;164.80;;;40.75;;
20619;SDS011;10469;42.720;23.252;2022-11-14T06:48:35;164.73;;;42.95;;
20619;SDS011;10469;42.720;23.252;2022-11-14T06:51:02;142.70;;;43.00;;
20619;SDS011;10469;42.720;23.252;2022-11-14T06:53:29;170.77;;;43.55;;
20619;SDS011;10469;42.720;23.252;2022-11-14T06:58:33;166.57;;;43.10;;
20619;SDS011;10469;42.720;23.252;2022-11-14T07:01:04;225.95;;;44.70;;
20619;SDS011;10469;42.720;23.252;2022-11-14T07:03:35;145.57;;;42.10;;
20619;SDS011;10469;42.720;23.252;2022-11-14T07:06:01;200.30;;;43.05;;
20619;SDS011;10469;42.720;23.252;2022-11-14T07:08:28;267.80;;;44.88;;
20619;SDS011;10469;42.720;23.252;2022-11-14T07:10:53;118.43;;;43.88;;
20619;SDS011;10469;42.720;23.252;2022-11-14T07:13:25;200.85;;;45.63;;
20619;SDS011;10469;42.720;23.252;2022-11-14T07:15:51;178.35;;;43.45;;
20619;SDS011;10469;42.720;23.252;2022-11-14T07:18:17;127.20;;;44.53;;
20619;SDS011;10469;42.720;23.252;2022-11-14T07:20:43;210.95;;;45.10;;
20619;SDS011;10469;42.720;23.252;2022-11-14T07:23:09;142.95;;;44.17;;
20619;SDS011;10469;42.720;23.252;2022-11-14T07:25:34;148.82;;;48.55;;
20619;SDS011;10469;42.720;23.252;2022-11-14T07:28:00;163.95;;;46.33;;
20619;SDS011;10469;42.720;23.252;2022-11-14T07:30:26;105.03;;;42.28;;
20619;SDS011;10469;42.720;23.252;2022-11-14T07:32:54;132.60;;;43.40;;
20619;SDS011;10469;42.720;23.252;2022-11-14T07:35:20;156.30;;;38.63;;
20619;SDS011;10469;42.720;23.252;2022-11-14T07:37:46;142.80;;;40.08;;
20619;SDS011;10469;42.720;23.252;2022-11-14T07:40:11;193.68;;;42.20;;
20619;SDS011;10469;42.720;23.252;2022-11-14T07:42:37;140.75;;;42.88;;
20619;SDS011;10469;42.720;23.252;2022-11-14T07:45:02;126.15;;;42.55;;
20619;SDS011;10469;42.720;23.252;2022-11-14T07:47:28;134.20;;;40.85;;
20619;SDS011;10469;42.720;23.252;2022-11-14T07:49:53;139.02;;;40.25;;
20619;SDS011;10469;42.720;23.252;2022-11-14T07:52:19;132.63;;;42.95;;
20619;SDS011;10469;42.720;23.252;2022-11-14T07:54:44;186.50;;;44.13;;
20619;SDS011;10469;42.720;23.252;2022-11-14T07:57:10;122.68;;;41.83;;
20619;SDS011;10469;42.720;23.252;2022-11-14T07:59:35;113.00;;;45.03;;
20619;SDS011;10469;42.720;23.252;2022-11-14T08:02:01;198.73;;;44.88;;
20619;SDS011;10469;42.720;23.252;2022-11-14T08:04:26;119.68;;;44.03;;
20619;SDS011;10469;42.720;23.252;2022-11-14T08:06:52;118.05;;;43.70;;
20619;SDS011;10469;42.720;23.252;2022-11-14T08:09:17;114.15;;;44.13;;
20619;SDS011;10469;42.720;23.252;2022-11-14T08:11:43;106.30;;;44.45;;
20619;SDS011;10469;42.720;23.252;2022-11-14T08:14:14;119.63;;;43.55;;
20619;SDS011;10469;42.720;23.252;2022-11-14T08:16:40;150.30;;;44.97;;
20619;SDS011;10469;42.720;23.252;2022-11-14T08:19:05;109.95;;;43.05;;
20619;SDS011;10469;42.720;23.252;2022-11-14T08:21:31;119.75;;;45.53;;
20619;SDS011;10469;42.720;23.252;2022-11-14T08:23:57;153.30;;;45.95;;
20619;SDS011;10469;42.720;23.252;2022-11-14T08:26:22;103.05;;;44.75;;
20619;SDS011;10469;42.720;23.252;2022-11-14T08:28:51;109.70;;;46.78;;
20619;SDS011;10469;42.720;23.252;2022-11-14T08:31:18;114.15;;;46.20;;
20619;SDS011;10469;42.720;23.252;2022-11-14T08:33:44;109.25;;;47.17;;
20619;SDS011;10469;42.720;23.252;2022-11-14T08:36:10;117.75;;;47.42;;
20619;SDS011;10469;42.720;23.252;2022-11-14T08:38:36;115.18;;;47.97;;
20619;SDS011;10469;42.720;23.252;2022-11-14T08:41:02;118.85;;;46.08;;
20619;SDS011;10469;42.720;23.252;2022-11-14T08:43:28;135.77;;;48.65;;
20619;SDS011;10469;42.720;23.252;2022-11-14T08:45:56;155.10;;;52.08;;
20619;SDS011;10469;42.720;23.252;2022-11-14T08:48:23;118.78;;;51.33;;
20619;SDS011;10469;42.720;23.252;2022-11-14T08:50:48;109.68;;;52.88;;
20619;SDS011;10469;42.720;23.252;2022-11-14T08:53:14;129.77;;;55.30;;
20619;SDS011;10469;42.720;23.252;2022-11-14T08:55:43;165.23;;;58.13;;
20619;SDS011;10469;42.720;23.252;2022-11-14T08:58:09;150.52;;;57.15;;
20619;SDS011;10469;42.720;23.252;2022-11-14T09:00:35;150.07;;;57.75;;
20619;SDS011;10469;42.720;23.252;2022-11-14T09:03:00;145.93;;;60.10;;
20619;SDS011;10469;42.720;23.252;2022-11-14T09:05:32;147.25;;;60.83;;
20619;SDS011;10469;42.720;23.252;2022-11-14T09:07:58;158.95;;;64.78;;
20619;SDS011;10469;42.720;23.252;2022-11-14T09:10:24;167.43;;;62.42;;
20619;SDS011;10469;42.720;23.252;2022-11-14T09:12:54;138.63;;;59.67;;
20619;SDS011;10469;42.720;23.252;2022-11-14T09:15:20;137.13;;;59.05;;
20619;SDS011;10469;42.720;23.252;2022-11-14T09:17:46;147.15;;;61.40;;
20619;SDS011;10469;42.720;23.252;2022-11-14T09:20:12;152.68;;;64.60;;
20619;SDS011;10469;42.720;23.252;2022-11-14T09:22:38;146.50;;;62.13;;
20619;SDS011;10469;42.720;23.252;2022-11-14T09:25:04;160.18;;;67.25;;
20619;SDS011;10469;42.720;23.252;2022-11-14T09:27:30;154.13;;;63.72;;
20619;SDS011;10469;42.720;23.252;2022-11-14T09:29:55;155.27;;;67.10;;
20619;SDS011;10469;42.720;23.252;2022-11-14T09:32:21;158.40;;;68.55;;
20619;SDS011;10469;42.720;23.252;2022-11-14T09:34:46;153.32;;;64.43;;
20619;SDS011;10469;42.720;23.252;2022-11-14T09:37:12;154.80;;;62.72;;
20619;SDS011;10469;42.720;23.252;2022-11-14T09:39:38;141.68;;;62.90;;
20619;SDS011;10469;42.720;23.252;2022-11-14T09:45:14;162.63;;;67.47;;
20619;SDS011;10469;42.720;23.252;2022-11-14T09:50:13;141.93;;;62.22;;
20619;SDS011;10469;42.720;23.252;2022-11-14T09:52:42;143.45;;;63.17;;
20619;SDS011;10469;42.720;23.252;2022-11-14T09:55:17;133.20;;;62.70;;
20619;SDS011;10469;42.720;23.252;2022-11-14T09:57:45;138.98;;;60.55;;
20619;SDS011;10469;42.720;23.252;2022-11-14T10:00:12;147.18;;;63.95;;
20619;SDS011;10469;42.720;23.252;2022-11-14T10:30:21;119.18;;;63.65;;
20619;SDS011;10469;42.720;23.252;2022-11-14T10:32:50;119.75;;;63.75;;
20619;SDS011;10469;42.720;23.252;2022-11-14T10:35:49;117.40;;;65.68;;
20619;SDS011;10469;42.720;23.252;2022-11-14T10:38:24;123.03;;;65.35;;
20619;SDS011;10469;42.720;23.252;2022-11-14T10:41:00;118.22;;;66.07;;
20619;SDS011;10469;42.720;23.252;2022-11-14T10:43:36;128.30;;;69.15;;
20619;SDS011;10469;42.720;23.252;2022-11-14T10:48:43;131.90;;;69.45;;
20619;SDS011;10469;42.720;23.252;2022-11-14T10:53:59;124.57;;;70.28;;
20619;SDS011;10469;42.720;23.252;2022-11-14T10:56:26;130.02;;;69.18;;
20619;SDS011;10469;42.720;23.252;2022-11-14T10:58:52;119.50;;;66.90;;
20619;SDS011;10469;42.720;23.252;2022-11-14T11:01:37;119.13;;;68.95;;
20619;SDS011;10469;42.720;23.252;2022-11-14T11:06:55;125.07;;;69.10;;
20619;SDS011;10469;42.720;23.252;2022-11-14T11:10:00;118.95;;;69.88;;
20619;SDS011;10469;42.720;23.252;2022-11-14T11:12:45;118.63;;;68.30;;
20619;SDS011;10469;42.720;23.252;2022-11-14T11:18:03;127.15;;;69.93;;
20619;SDS011;10469;42.720;23.252;2022-11-14T11:21:00;120.30;;;67.10;;
20619;SDS011;10469;42.720;23.252;2022-11-14T11:23:49;129.27;;;68.53;;
20619;SDS011;10469;42.720;23.252;2022-11-14T11:26:23;118.28;;;66.85;;
20619;SDS011;10469;42.720;23.252;2022-11-14T11:29:03;121.80;;;68.53;;
20619;SDS011;10469;42.720;23.252;2022-11-14T11:31:50;114.95;;;67.28;;
20619;SDS011;10469;42.720;23.252;2022-11-14T11:34:24;123.20;;;68.47;;
20619;SDS011;10469;42.720;23.252;2022-11-14T11:39:55;119.72;;;65.30;;
20619;SDS011;10469;42.720;23.252;2022-11-14T11:42:28;120.28;;;66.75;;
20619;SDS011;10469;42.720;23.252;2022-11-14T11:45:04;127.40;;;67.13;;
20619;SDS011;10469;42.720;23.252;2022-11-14T11:47:37;125.03;;;66.00;;
20619;SDS011;10469;42.720;23.252;2022-11-14T11:50:11;123.43;;;65.78;;
20619;SDS011;10469;42.720;23.252;2022-11-14T11:55:14;121.93;;;64.90;;
20619;SDS011;10469;42.720;23.252;2022-11-14T11:57:50;114.65;;;64.18;;
20619;SDS011;10469;42.720;23.252;2022-11-14T12:00:25;109.38;;;62.50;;
20619;SDS011;10469;42.720;23.252;2022-11-14T12:02:51;112.30;;;64.15;;
20619;SDS011;10469;42.720;23.252;2022-11-14T12:10:45;108.43;;;62.00;;
20619;SDS011;10469;42.720;23.252;2022-11-14T12:15:55;98.93;;;61.75;;
20619;SDS011;10469;42.720;23.252;2022-11-14T12:21:18;101.65;;;62.80;;
20619;SDS011;10469;42.720;23.252;2022-11-14T12:24:16;97.80;;;60.40;;
20619;SDS011;10469;42.720;23.252;2022-11-14T12:32:29;108.35;;;64.25;;
20619;SDS011;10469;42.720;23.252;2022-11-14T12:35:18;110.82;;;63.15;;
20619;SDS011;10469;42.720;23.252;2022-11-14T12:37:48;105.07;;;62.13;;
20619;SDS011;10469;42.720;23.252;2022-11-14T12:40:30;107.93;;;64.68;;
20619;SDS011;10469;42.720;23.252;2022-11-14T12:42:59;107.20;;;64.13;;
20619;SDS011;10469;42.720;23.252;2022-11-14T12:50:44;112.05;;;64.18;;
20619;SDS011;10469;42.720;23.252;2022-11-14T13:01:42;117.72;;;64.68;;
20619;SDS011;10469;42.720;23.252;2022-11-14T13:15:57;118.80;;;63.38;;
20619;SDS011;10469;42.720;23.252;2022-11-14T13:18:50;117.70;;;63.42;;
20619;SDS011;10469;42.720;23.252;2022-11-14T13:27:25;105.82;;;61.75;;
20619;SDS011;10469;42.720;23.252;2022-11-14T13:29:53;119.78;;;64.55;;
20619;SDS011;10469;42.720;23.252;2022-11-14T13:35:04;117.68;;;63.55;;
20619;SDS011;10469;42.720;23.252;2022-11-14T13:37:46;109.00;;;63.38;;
20619;SDS011;10469;42.720;23.252;2022-11-14T13:40:33;111.38;;;63.92;;
20619;SDS011;10469;42.720;23.252;2022-11-14T13:46:55;124.75;;;70.15;;
20619;SDS011;10469;42.720;23.252;2022-11-14T13:49:06;134.27;;;71.40;;
20619;SDS011;10469;42.720;23.252;2022-11-14T13:51:49;132.52;;;75.65;;
20619;SDS011;10469;42.720;23.252;2022-11-14T13:54:17;139.63;;;78.15;;
20619;SDS011;10469;42.720;23.252;2022-11-14T13:59:39;142.63;;;79.40;;
20619;SDS011;10469;42.720;23.252;2022-11-14T14:15:34;141.13;;;77.72;;
20619;SDS011;10469;42.720;23.252;2022-11-14T14:18:16;130.65;;;73.65;;
20619;SDS011;10469;42.720;23.252;2022-11-14T14:23:58;129.38;;;71.07;;
20619;SDS011;10469;42.720;23.252;2022-11-14T14:31:42;116.80;;;64.30;;
20619;SDS011;10469;42.720;23.252;2022-11-14T14:34:21;113.68;;;61.28;;
20619;SDS011;10469;42.720;23.252;2022-11-14T14:36:55;111.30;;;61.50;;
20619;SDS011;10469;42.720;23.252;2022-11-14T14:39:22;113.28;;;60.97;;
20619;SDS011;10469;42.720;23.252;2022-11-14T14:41:50;119.00;;;60.25;;
20619;SDS011;10469;42.720;23.252;2022-11-14T14:47:14;97.93;;;56.75;;
20619;SDS011;10469;42.720;23.252;2022-11-14T14:50:00;101.28;;;57.33;;
20619;SDS011;10469;42.720;23.252;2022-11-14T14:52:29;104.63;;;58.00;;
20619;SDS011;10469;42.720;23.252;2022-11-14T14:54:56;114.60;;;55.85;;
20619;SDS011;10469;42.720;23.252;2022-11-14T14:57:26;102.28;;;55.25;;
20619;SDS011;10469;42.720;23.252;2022-11-14T14:59:59;116.15;;;56.42;;
20619;SDS011;10469;42.720;23.252;2022-11-14T15:04:51;105.47;;;55.08;;
20619;SDS011;10469;42.720;23.252;2022-11-14T15:07:19;103.97;;;55.80;;
20619;SDS011;10469;42.720;23.252;2022-11-14T15:09:54;106.97;;;57.95;;
20619;SDS011;10469;42.720;23.252;2022-11-14T15:12:22;99.68;;;54.83;;
20619;SDS011;10469;42.720;23.252;2022-11-14T15:14:53;104.45;;;54.63;;
20619;SDS011;10469;42.720;23.252;2022-11-14T15:17:21;103.32;;;55.10;;
20619;SDS011;10469;42.720;23.252;2022-11-14T15:19:48;99.82;;;54.60;;
20619;SDS011;10469;42.720;23.252;2022-11-14T15:25:03;110.13;;;58.80;;
20619;SDS011;10469;42.720;23.252;2022-11-14T15:27:49;109.18;;;56.38;;
20619;SDS011;10469;42.720;23.252;2022-11-14T15:30:24;106.97;;;56.10;;
20619;SDS011;10469;42.720;23.252;2022-11-14T15:32:56;105.63;;;57.28;;
20619;SDS011;10469;42.720;23.252;2022-11-14T15:38:04;101.13;;;56.58;;
20619;SDS011;10469;42.720;23.252;2022-11-14T15:40:30;168.48;;;81.38;;
20619;SDS011;10469;42.720;23.252;2022-11-14T15:42:57;125.28;;;67.07;;
20619;SDS011;10469;42.720;23.252;2022-11-14T15:45:37;114.03;;;61.38;;
20619;SDS011;10469;42.720;23.252;2022-11-14T15:48:10;120.55;;;61.00;;
20619;SDS011;10469;42.720;23.252;2022-11-14T15:50:39;120.80;;;60.45;;
20619;SDS011;10469;42.720;23.252;2022-11-14T15:53:13;123.65;;;60.15;;
20619;SDS011;10469;42.720;23.252;2022-11-14T15:55:46;117.70;;;61.58;;
20619;SDS011;10469;42.720;23.252;2022-11-14T15:58:11;139.73;;;62.45;;
20619;SDS011;10469;42.720;23.252;2022-11-14T16:00:43;123.72;;;63.08;;
20619;SDS011;10469;42.720;23.252;2022-11-14T16:03:11;131.07;;;66.55;;
20619;SDS011;10469;42.720;23.252;2022-11-14T16:05:41;139.57;;;71.90;;
20619;SDS011;10469;42.720;23.252;2022-11-14T16:08:09;148.18;;;74.88;;
20619;SDS011;10469;42.720;23.252;2022-11-14T16:10:35;146.55;;;77.22;;
20619;SDS011;10469;42.720;23.252;2022-11-14T16:13:01;136.45;;;71.97;;
20619;SDS011;10469;42.720;23.252;2022-11-14T16:15:26;153.55;;;85.05;;
20619;SDS011;10469;42.720;23.252;2022-11-14T16:17:52;151.23;;;74.93;;
20619;SDS011;10469;42.720;23.252;2022-11-14T16:20:19;137.93;;;72.45;;
20619;SDS011;10469;42.720;23.252;2022-11-14T16:22:49;149.63;;;72.90;;
20619;SDS011;10469;42.720;23.252;2022-11-14T16:25:22;129.95;;;70.03;;
20619;SDS011;10469;42.720;23.252;2022-11-14T16:27:49;146.90;;;75.78;;
20619;SDS011;10469;42.720;23.252;2022-11-14T16:30:16;138.60;;;75.88;;